createdAt,value
2022-08-08T00:00:52.731Z,4.93
2022-08-08T00:02:40.088Z,4.63
2022-08-08T00:05:20.253Z,4.27
2022-08-08T00:07:57.589Z,5.10
2022-08-08T00:10:34.457Z,4.70
2022-08-08T00:14:17.501Z,4.43
2022-08-08T00:16:14.199Z,4.80
2022-08-08T00:19:00.126Z,5.00
2022-08-08T00:21:29.953Z,5.10
2022-08-08T00:24:29.957Z,5.13
2022-08-08T00:26:57.520Z,4.83
2022-08-08T00:29:45.069Z,4.73
2022-08-08T00:32:33.254Z,4.73
2022-08-08T00:35:21.437Z,4.53
2022-08-08T00:41:06.948Z,4.10
2022-08-08T00:43:51.706Z,4.43
2022-08-08T00:46:57.887Z,4.13
2022-08-08T00:52:40.170Z,5.10
2022-08-08T00:55:10.260Z,5.00
2022-08-08T00:57:40.817Z,4.67
2022-08-08T01:00:16.120Z,4.33
2022-08-08T01:03:59.720Z,4.80
2022-08-08T01:09:34.799Z,5.37
2022-08-08T01:15:43.797Z,5.27
2022-08-08T01:18:25.564Z,5.10
2022-08-08T01:21:12.339Z,5.67
2022-08-08T01:26:28.547Z,5.03
2022-08-08T01:29:06.516Z,5.40
2022-08-08T01:32:13.728Z,5.20
2022-08-08T01:35:18.065Z,5.23
2022-08-08T01:38:16.463Z,5.27
2022-08-08T01:40:57.186Z,5.10
2022-08-08T01:43:34.621Z,4.90
2022-08-08T01:49:37.738Z,5.50
2022-08-08T01:56:21.677Z,5.30
2022-08-08T01:58:15.893Z,5.10
2022-08-08T02:01:08.990Z,4.60
2022-08-08T02:04:00.352Z,5.30
2022-08-08T02:06:49.894Z,5.03
2022-08-08T02:10:01.973Z,5.60
2022-08-08T02:12:35.064Z,4.83
2022-08-08T02:15:12.557Z,4.73
2022-08-08T02:17:47.257Z,5.07
2022-08-08T02:23:31.630Z,4.43
2022-08-08T02:26:11.634Z,4.70
2022-08-08T02:28:53.259Z,4.70
2022-08-08T02:31:59.199Z,4.43
2022-08-08T02:34:32.728Z,4.90
2022-08-08T02:37:52.520Z,4.70
2022-08-08T02:40:12.020Z,3.90
2022-08-08T02:45:51.254Z,4.43
2022-08-08T02:48:26.282Z,3.93
2022-08-08T02:51:01.549Z,4.20
2022-08-08T02:53:50.863Z,4.00
2022-08-08T02:56:25.601Z,3.97
2022-08-08T02:59:36.826Z,3.80
2022-08-08T03:02:30.060Z,4.00
2022-08-08T03:05:10.659Z,4.20
2022-08-08T03:07:59.001Z,4.40
2022-08-08T03:10:44.772Z,4.40
2022-08-08T03:15:59.847Z,4.37
2022-08-08T03:16:39.924Z,4.17
2022-08-08T03:19:20.383Z,4.20
2022-08-08T03:24:34.611Z,3.60
2022-08-08T03:27:22.082Z,4.50
2022-08-08T03:29:57.164Z,4.47
2022-08-08T03:32:56.913Z,5.00
2022-08-08T03:35:27.175Z,5.83
2022-08-08T03:38:56.911Z,5.30
2022-08-08T03:40:54.671Z,4.80
2022-08-08T03:43:25.300Z,5.43
2022-08-08T03:46:09.070Z,4.90
2022-08-08T03:49:26.577Z,5.47
2022-08-08T03:51:50.329Z,4.80
2022-08-08T03:58:31.948Z,4.93
2022-08-08T04:00:11.276Z,4.87
2022-08-08T04:02:51.605Z,5.00
2022-08-08T04:05:22.775Z,5.63
2022-08-08T04:07:57.953Z,5.07
2022-08-08T04:10:26.084Z,5.03
2022-08-08T04:13:03.747Z,4.90
2022-08-08T04:18:44.752Z,4.70
2022-08-08T04:21:19.824Z,5.33
2022-08-08T04:24:05.453Z,5.30
2022-08-08T04:26:57.982Z,8.73
2022-08-08T04:29:37.138Z,7.27
2022-08-08T04:32:10.514Z,6.60
2022-08-08T04:34:49.530Z,6.10
2022-08-08T04:37:31.575Z,5.20
2022-08-08T04:40:07.804Z,5.13
2022-08-08T04:42:46.593Z,5.30
2022-08-08T04:45:27.669Z,4.80
2022-08-08T04:50:46.138Z,4.50
2022-08-08T04:56:04.950Z,4.70
2022-08-08T04:58:36.639Z,4.50
2022-08-08T05:01:10.737Z,4.43
2022-08-08T05:04:07.474Z,4.53
2022-08-08T05:06:30.586Z,5.00
2022-08-08T05:09:02.315Z,4.73
2022-08-08T05:11:38.844Z,4.40
2022-08-08T05:14:12.354Z,4.70
2022-08-08T05:16:52.130Z,4.60
2022-08-08T05:20:12.405Z,3.97
2022-08-08T05:22:12.520Z,4.00
2022-08-08T05:27:33.103Z,3.70
2022-08-08T05:30:01.203Z,3.23
2022-08-08T05:32:36.421Z,2.90
2022-08-08T05:35:06.200Z,2.60
2022-08-08T05:37:52.947Z,2.77
2022-08-08T05:40:50.673Z,2.77
2022-08-08T05:43:40.257Z,3.00
2022-08-08T05:48:56.328Z,2.53
2022-08-08T05:51:27.439Z,2.50
2022-08-08T05:54:27.450Z,2.60
2022-08-08T05:57:04.619Z,2.43
2022-08-08T06:00:01.283Z,2.67
2022-08-08T06:02:48.653Z,2.00
2022-08-08T06:05:35.642Z,1.90
2022-08-08T06:08:09.908Z,2.03
2022-08-08T06:10:58.646Z,1.90
2022-08-08T06:13:35.812Z,1.80
2022-08-08T06:16:27.206Z,1.70
2022-08-08T06:18:58.687Z,1.90
2022-08-08T06:21:32.822Z,1.50
2022-08-08T06:24:26.993Z,1.60
2022-08-08T06:27:10.867Z,1.63
2022-08-08T06:32:55.844Z,1.33
2022-08-08T06:36:04.272Z,1.40
2022-08-08T06:38:16.766Z,1.40
2022-08-08T06:40:53.573Z,1.30
2022-08-08T06:43:28.477Z,1.30
2022-08-08T06:46:03.514Z,1.20
2022-08-08T06:48:30.658Z,1.20
2022-08-08T06:51:02.385Z,1.30
2022-08-08T06:53:39.619Z,1.50
2022-08-08T06:56:11.619Z,1.17
2022-08-08T06:58:44.223Z,1.20
2022-08-08T07:02:16.720Z,1.27
2022-08-08T07:04:41.611Z,1.30
2022-08-08T07:06:56.326Z,1.40
2022-08-08T07:09:45.586Z,1.50
2022-08-08T07:12:22.646Z,1.20
2022-08-08T07:15:04.399Z,1.33
2022-08-08T07:17:56.643Z,1.40
2022-08-08T07:20:28.242Z,1.87
2022-08-08T07:23:04.533Z,1.23
2022-08-08T07:28:31.410Z,1.30
2022-08-08T07:31:05.096Z,1.33
2022-08-08T07:33:37.658Z,1.30
2022-08-08T07:36:08.100Z,1.10
2022-08-08T07:38:35.840Z,1.47
2022-08-08T07:41:23.517Z,0.97
2022-08-08T07:43:54.920Z,1.07
2022-08-08T07:49:13.844Z,1.07
2022-08-08T07:51:45.278Z,1.17
2022-08-08T07:54:27.155Z,1.30
2022-08-08T07:57:16.980Z,1.47
2022-08-08T07:59:52.861Z,1.20
2022-08-08T08:02:35.397Z,2.60
2022-08-08T08:05:18.592Z,1.30
2022-08-08T08:07:53.036Z,1.10
2022-08-08T08:10:30.612Z,1.33
2022-08-08T08:16:05.746Z,1.10
2022-08-08T08:18:55.835Z,1.97
2022-08-08T08:21:44.082Z,2.00
2022-08-08T08:24:35.464Z,2.20
2022-08-08T08:27:05.118Z,1.30
2022-08-08T08:29:40.310Z,1.20
2022-08-08T08:32:11.522Z,1.37
2022-08-08T08:34:43.275Z,1.20
2022-08-08T08:37:20.475Z,1.20
2022-08-08T08:40:01.124Z,1.40
2022-08-08T08:42:35.863Z,1.37
2022-08-08T08:48:01.737Z,1.33
2022-08-08T08:50:35.420Z,1.40
2022-08-08T08:53:54.642Z,1.40
2022-08-08T08:56:05.078Z,1.30
2022-08-08T08:58:49.877Z,1.40
2022-08-08T09:04:31.657Z,1.90
2022-08-08T09:07:12.275Z,1.60
2022-08-08T09:09:48.227Z,1.30
2022-08-08T09:15:11.865Z,1.50
2022-08-08T09:17:52.481Z,1.20
2022-08-08T09:21:57.974Z,1.53
2022-08-08T09:23:17.236Z,1.87
2022-08-08T09:25:58.385Z,1.83
2022-08-08T09:28:38.241Z,1.20
2022-08-08T09:31:16.418Z,1.70
2022-08-08T09:34:15.068Z,3.37
2022-08-08T09:36:36.118Z,1.40
2022-08-08T09:42:20.691Z,1.47
2022-08-08T09:48:04.457Z,1.47
2022-08-08T09:50:28.262Z,1.43
2022-08-08T09:52:59.516Z,1.30
2022-08-08T09:56:04.464Z,1.30
2022-08-08T09:58:26.111Z,1.40
2022-08-08T10:01:00.213Z,1.50
2022-08-08T10:03:27.952Z,1.50
2022-08-08T10:05:58.750Z,1.50
2022-08-08T10:11:12.189Z,1.53
2022-08-08T10:14:01.609Z,1.90
2022-08-08T10:16:39.610Z,1.43
2022-08-08T10:19:11.958Z,2.33
2022-08-08T10:21:42.585Z,2.07
2022-08-08T10:24:29.675Z,1.67
2022-08-08T10:27:04.549Z,3.50
2022-08-08T10:32:39.843Z,2.40
2022-08-08T10:35:20.563Z,1.60
2022-08-08T10:38:05.459Z,2.90
2022-08-08T10:40:33.368Z,2.00
2022-08-08T10:43:01.733Z,1.60
2022-08-08T10:45:30.026Z,1.47
2022-08-08T10:48:10.059Z,1.87
2022-08-08T10:50:37.641Z,1.80
2022-08-08T10:53:07.575Z,2.43
2022-08-08T10:55:46.574Z,1.70
2022-08-08T10:58:15.761Z,1.60
2022-08-08T11:00:53.117Z,1.60
2022-08-08T11:03:52.300Z,1.80
2022-08-08T11:06:18.235Z,1.90
2022-08-08T11:08:53.238Z,1.70
2022-08-08T11:12:00.043Z,1.90
2022-08-08T11:14:08.485Z,1.60
2022-08-08T11:19:24.722Z,1.60
2022-08-08T11:21:55.549Z,2.13
2022-08-08T11:24:23.528Z,2.13
2022-08-08T11:26:56.969Z,1.70
2022-08-08T11:29:41.596Z,2.20
2022-08-08T11:32:13.371Z,1.40
2022-08-08T11:35:07.956Z,1.70
2022-08-08T11:38:34.306Z,1.83
2022-08-08T11:42:58.882Z,1.77
2022-08-08T11:45:26.927Z,1.67
2022-08-08T11:48:04.440Z,2.33
2022-08-08T11:53:16.736Z,1.73
2022-08-08T11:55:52.284Z,2.00
2022-08-08T11:58:19.229Z,1.93
2022-08-08T12:00:53.337Z,5.93
2022-08-08T12:03:21.240Z,1.90
2022-08-08T12:05:48.236Z,2.20
2022-08-08T12:08:15.161Z,2.27
2022-08-08T12:10:48.754Z,2.07
2022-08-08T12:13:16.207Z,2.20
2022-08-08T12:15:49.091Z,1.97
2022-08-08T12:21:04.680Z,1.90
2022-08-08T12:23:40.181Z,2.20
2022-08-08T12:26:17.281Z,2.27
2022-08-08T12:28:57.874Z,2.10
2022-08-08T12:31:39.196Z,2.10
2022-08-08T12:34:20.170Z,2.87
2022-08-08T12:36:49.260Z,3.00
2022-08-08T12:40:01.366Z,3.10
2022-08-08T12:42:20.968Z,2.50
2022-08-08T12:44:50.368Z,2.43
2022-08-08T12:47:57.959Z,2.50
2022-08-08T12:52:58.377Z,2.50
2022-08-08T12:55:29.255Z,2.27
2022-08-08T12:58:15.675Z,2.33
2022-08-08T13:00:46.244Z,2.43
2022-08-08T13:03:25.169Z,2.30
2022-08-08T13:06:03.940Z,3.10
2022-08-08T13:08:53.853Z,2.30
2022-08-08T13:14:35.927Z,2.20
2022-08-08T13:17:05.255Z,2.80
2022-08-08T13:19:49.779Z,2.03
2022-08-08T13:22:24.400Z,2.20
2022-08-08T13:24:51.662Z,2.60
2022-08-08T13:27:22.241Z,2.60
2022-08-08T13:29:53.208Z,2.90
2022-08-08T13:32:20.909Z,2.70
2022-08-08T13:34:52.476Z,2.40
2022-08-08T13:37:28.185Z,2.90
2022-08-08T13:42:51.023Z,2.60
2022-08-08T13:45:22.309Z,3.90
2022-08-08T13:47:58.480Z,2.80
2022-08-08T13:50:36.532Z,2.40
2022-08-08T13:53:23.091Z,1.97
2022-08-08T13:55:57.087Z,2.40
2022-08-08T13:58:24.113Z,2.30
2022-08-08T14:00:56.142Z,1.93
2022-08-08T14:03:52.384Z,2.87
2022-08-08T14:09:24.469Z,2.40
2022-08-08T14:11:49.473Z,3.03
2022-08-08T14:14:21.103Z,3.13
2022-08-08T14:16:53.776Z,2.70
2022-08-08T14:19:57.430Z,2.60
2022-08-08T14:22:23.781Z,2.93
2022-08-08T14:24:52.244Z,3.40
2022-08-08T14:27:27.004Z,2.87
2022-08-08T14:29:59.808Z,3.07
2022-08-08T14:32:29.694Z,2.50
2022-08-08T14:35:04.621Z,2.50
2022-08-08T14:37:43.195Z,2.50
2022-08-08T14:40:21.835Z,1.93
2022-08-08T14:42:55.407Z,2.57
2022-08-08T14:45:28.925Z,2.70
2022-08-08T14:48:01.096Z,2.60
2022-08-08T14:50:38.052Z,3.37
2022-08-08T14:53:09.882Z,2.97
2022-08-08T14:55:42.358Z,2.33
2022-08-08T14:58:16.966Z,2.40
2022-08-08T15:00:47.851Z,2.30
2022-08-08T15:03:16.969Z,2.90
2022-08-08T15:05:53.877Z,2.30
2022-08-08T15:08:34.452Z,2.30
2022-08-08T15:11:06.465Z,2.90
2022-08-08T15:13:34.889Z,2.40
2022-08-08T15:16:12.143Z,2.37
2022-08-08T15:18:49.854Z,2.30
2022-08-08T15:21:18.635Z,2.20
2022-08-08T15:23:51.313Z,2.27
2022-08-08T15:26:20.547Z,2.10
2022-08-08T15:28:53.012Z,3.13
2022-08-08T15:31:55.550Z,2.10
2022-08-08T15:34:07.025Z,2.30
2022-08-08T15:39:22.468Z,2.17
2022-08-08T15:41:49.606Z,3.00
2022-08-08T15:44:18.058Z,2.97
2022-08-08T15:46:45.210Z,3.43
2022-08-08T15:49:12.492Z,2.43
2022-08-08T15:51:39.335Z,3.30
2022-08-08T15:54:06.880Z,2.53
2022-08-08T15:56:45.995Z,2.30
2022-08-08T16:02:00.271Z,2.37
2022-08-08T16:04:29.882Z,1.93
2022-08-08T16:06:56.858Z,1.77
2022-08-08T16:13:12.266Z,2.00
2022-08-08T16:13:14.267Z,1.93
2022-08-08T16:14:57.801Z,2.20
2022-08-08T16:17:38.744Z,2.63
2022-08-08T16:20:13.503Z,2.47
2022-08-08T16:22:41.453Z,1.90
2022-08-08T16:25:09.050Z,1.97
2022-08-08T16:27:36.918Z,2.07
2022-08-08T16:30:13.236Z,1.93
2022-08-08T16:32:43.326Z,2.67
2022-08-08T16:35:15.287Z,2.27
2022-08-08T16:37:47.315Z,2.27
2022-08-08T16:40:14.654Z,2.60
2022-08-08T16:42:51.856Z,2.00
2022-08-08T16:46:36.713Z,2.07
2022-08-08T16:48:08.066Z,2.60
2022-08-08T16:50:35.604Z,2.80
2022-08-08T16:55:06.467Z,2.30
2022-08-08T16:58:34.791Z,3.20
2022-08-08T17:01:02.293Z,2.30
2022-08-08T17:03:59.352Z,2.33
2022-08-08T17:09:03.353Z,2.30
2022-08-08T17:11:47.970Z,2.40
2022-08-08T17:14:18.687Z,2.53
2022-08-08T17:19:41.073Z,2.50
2022-08-08T17:22:09.219Z,2.50
2022-08-08T17:24:36.782Z,2.00
2022-08-08T17:27:05.237Z,2.10
2022-08-08T17:29:36.437Z,2.07
2022-08-08T17:32:10.864Z,2.17
2022-08-08T17:35:44.434Z,2.40
2022-08-08T17:37:25.806Z,2.07
2022-08-08T17:40:06.016Z,2.20
2022-08-08T17:42:40.327Z,2.93
2022-08-08T17:47:53.838Z,2.90
2022-08-08T17:50:22.028Z,2.83
2022-08-08T17:52:50.014Z,2.73
2022-08-08T17:56:03.855Z,2.90
2022-08-08T17:58:03.959Z,2.97
2022-08-08T18:00:31.818Z,2.63
2022-08-08T18:03:08.252Z,3.03
2022-08-08T18:05:48.243Z,3.30
2022-08-08T18:08:24.950Z,3.30
2022-08-08T18:11:08.301Z,3.20
2022-08-08T18:13:41.698Z,5.20
2022-08-08T18:19:46.050Z,4.77
2022-08-08T18:22:37.529Z,3.30
2022-08-08T18:25:13.903Z,3.20
2022-08-08T18:27:43.298Z,3.50
2022-08-08T18:30:12.216Z,3.70
2022-08-08T18:32:42.000Z,3.57
2022-08-08T18:35:09.829Z,3.93
2022-08-08T18:37:48.599Z,3.33
2022-08-08T18:40:16.974Z,3.67
2022-08-08T18:42:50.192Z,4.23
2022-08-08T18:46:52.998Z,3.47
2022-08-08T18:48:07.494Z,3.77
2022-08-08T18:50:39.681Z,3.60
2022-08-08T18:53:17.220Z,3.17
2022-08-08T18:55:46.444Z,3.60
2022-08-08T18:58:29.245Z,5.20
2022-08-08T19:00:57.183Z,4.60
2022-08-08T19:03:24.411Z,5.20
2022-08-08T19:05:51.815Z,4.77
2022-08-08T19:08:24.472Z,5.70
2022-08-08T19:10:55.518Z,4.43
2022-08-08T19:13:25.183Z,5.40
2022-08-08T19:18:51.491Z,5.17
2022-08-08T19:21:30.332Z,5.10
2022-08-08T19:26:53.952Z,5.37
2022-08-08T19:29:20.997Z,4.37
2022-08-08T19:31:55.446Z,5.00
2022-08-08T19:34:36.408Z,4.40
2022-08-08T19:37:16.318Z,4.50
2022-08-08T19:39:45.667Z,5.30
2022-08-08T19:42:17.326Z,4.80
2022-08-08T19:44:46.300Z,4.33
2022-08-08T19:47:23.920Z,4.90
2022-08-08T19:50:02.605Z,4.87
2022-08-08T19:55:15.924Z,4.40
2022-08-08T19:57:45.368Z,4.90
2022-08-08T20:00:29.228Z,4.70
2022-08-08T20:02:57.824Z,4.90
2022-08-08T20:06:13.697Z,4.80
2022-08-08T20:08:27.917Z,4.83
2022-08-08T20:10:59.029Z,4.87
2022-08-08T20:14:12.230Z,5.30
2022-08-08T20:16:17.304Z,4.80
2022-08-08T20:21:37.902Z,5.07
2022-08-08T20:24:06.200Z,4.90
2022-08-08T20:26:35.047Z,4.93
2022-08-08T20:29:08.432Z,4.83
2022-08-08T20:32:07.133Z,4.70
2022-08-08T20:37:18.616Z,4.80
2022-08-08T20:42:38.711Z,4.73
2022-08-08T20:47:57.821Z,4.57
2022-08-08T20:50:34.779Z,4.87
2022-08-08T20:53:01.949Z,5.13
2022-08-08T20:55:29.566Z,5.77
2022-08-08T20:58:03.114Z,5.97
2022-08-08T21:00:30.323Z,6.97
2022-08-08T21:02:58.271Z,8.73
2022-08-08T21:05:31.992Z,8.37
2022-08-08T21:08:33.945Z,8.10
2022-08-08T21:10:46.590Z,7.33
2022-08-08T21:13:16.205Z,6.73
2022-08-08T21:16:04.796Z,6.87
2022-08-08T21:18:30.238Z,5.87
2022-08-08T21:20:59.316Z,5.70
2022-08-08T21:24:02.370Z,6.20
2022-08-08T21:26:24.533Z,5.27
2022-08-08T21:28:56.119Z,5.13
2022-08-08T21:31:53.358Z,5.53
2022-08-08T21:34:18.748Z,5.40
2022-08-08T21:36:47.440Z,5.07
2022-08-08T21:39:14.880Z,5.83
2022-08-08T21:41:53.803Z,6.30
2022-08-08T21:44:26.342Z,7.03
2022-08-08T21:48:07.616Z,7.47
2022-08-08T21:49:39.804Z,6.70
2022-08-08T21:54:32.732Z,6.77
2022-08-08T21:55:02.583Z,7.07
2022-08-08T21:57:42.246Z,6.47
2022-08-08T22:00:12.389Z,6.87
2022-08-08T22:02:42.085Z,7.27
2022-08-08T22:05:11.283Z,7.80
2022-08-08T22:07:47.451Z,7.73
2022-08-08T22:13:18.472Z,6.57
2022-08-08T22:15:58.723Z,7.20
2022-08-08T22:18:31.061Z,6.77
2022-08-08T22:23:50.795Z,7.47
2022-08-08T22:26:29.797Z,7.57
2022-08-08T22:29:14.650Z,6.53
2022-08-08T22:32:02.468Z,7.57
2022-08-08T22:34:31.212Z,7.83
2022-08-08T22:36:57.919Z,7.87
2022-08-08T22:39:39.173Z,6.60
2022-08-08T22:42:27.155Z,6.73
2022-08-08T22:44:54.771Z,7.53
2022-08-08T22:47:21.676Z,6.93
2022-08-08T22:49:54.083Z,8.17
2022-08-08T22:52:33.356Z,7.13
2022-08-08T22:55:04.644Z,8.83
2022-08-08T22:57:44.360Z,9.37
2022-08-08T23:00:16.630Z,8.07
2022-08-08T23:05:29.767Z,7.40
2022-08-08T23:08:05.980Z,8.37
2022-08-08T23:10:34.621Z,7.30
2022-08-08T23:13:01.324Z,8.20
2022-08-08T23:16:42.181Z,8.93
2022-08-08T23:18:18.968Z,8.90
2022-08-08T23:20:54.561Z,8.57
2022-08-08T23:23:22.924Z,9.27
2022-08-08T23:28:34.859Z,9.53
2022-08-08T23:31:01.595Z,8.20
2022-08-08T23:34:17.904Z,7.83
2022-08-08T23:39:02.356Z,8.70
2022-08-08T23:41:29.247Z,7.33
2022-08-08T23:43:56.603Z,7.57
2022-08-08T23:49:02.240Z,8.00
2022-08-08T23:49:15.257Z,8.13
2022-08-08T23:52:07.114Z,8.17
2022-08-08T23:54:43.053Z,7.47
2022-08-08T23:57:26.931Z,8.80
